sensor_id;sensor_type;location;lat;lon;timestamp;P1;durP1;ratioP1;P2;durP2;ratioP2
9700;SDS011;4889;48.620;7.892;2023-03-25T00:02:14;0.50;;;0.20;;
9700;SDS011;4889;48.620;7.892;2023-03-25T00:04:39;4.50;;;1.07;;
9700;SDS011;4889;48.620;7.892;2023-03-25T00:07:05;0.83;;;0.30;;
9700;SDS011;4889;48.620;7.892;2023-03-25T00:09:31;0.50;;;0.20;;
9700;SDS011;4889;48.620;7.892;2023-03-25T00:11:56;0.50;;;0.20;;
9700;SDS011;4889;48.620;7.892;2023-03-25T00:14:22;0.50;;;0.20;;
9700;SDS011;4889;48.620;7.892;2023-03-25T00:16:49;0.50;;;0.20;;
9700;SDS011;4889;48.620;7.892;2023-03-25T00:19:17;0.50;;;0.30;;
9700;SDS011;4889;48.620;7.892;2023-03-25T00:21:42;0.70;;;0.37;;
9700;SDS011;4889;48.620;7.892;2023-03-25T00:24:10;0.50;;;0.20;;
9700;SDS011;4889;48.620;7.892;2023-03-25T00:26:36;1.97;;;0.30;;
9700;SDS011;4889;48.620;7.892;2023-03-25T00:29:09;0.50;;;0.30;;
9700;SDS011;4889;48.620;7.892;2023-03-25T00:31:35;1.37;;;0.73;;
9700;SDS011;4889;48.620;7.892;2023-03-25T00:34:00;0.50;;;0.20;;
9700;SDS011;4889;48.620;7.892;2023-03-25T00:36:25;0.50;;;0.20;;
9700;SDS011;4889;48.620;7.892;2023-03-25T00:38:50;0.70;;;0.30;;
9700;SDS011;4889;48.620;7.892;2023-03-25T00:41:20;2.73;;;1.27;;
9700;SDS011;4889;48.620;7.892;2023-03-25T00:43:53;6.77;;;0.80;;
9700;SDS011;4889;48.620;7.892;2023-03-25T00:46:18;0.60;;;0.40;;
9700;SDS011;4889;48.620;7.892;2023-03-25T00:48:43;0.50;;;0.20;;
9700;SDS011;4889;48.620;7.892;2023-03-25T00:51:09;1.53;;;0.40;;
9700;SDS011;4889;48.620;7.892;2023-03-25T00:53:37;0.50;;;0.20;;
9700;SDS011;4889;48.620;7.892;2023-03-25T00:56:03;1.03;;;0.73;;
9700;SDS011;4889;48.620;7.892;2023-03-25T00:58:29;0.50;;;0.20;;
9700;SDS011;4889;48.620;7.892;2023-03-25T01:00:54;1.10;;;0.40;;
9700;SDS011;4889;48.620;7.892;2023-03-25T01:03:24;0.60;;;0.30;;
9700;SDS011;4889;48.620;7.892;2023-03-25T01:05:49;0.50;;;0.20;;
9700;SDS011;4889;48.620;7.892;2023-03-25T01:08:15;0.50;;;0.20;;
9700;SDS011;4889;48.620;7.892;2023-03-25T01:10:41;0.70;;;0.30;;
9700;SDS011;4889;48.620;7.892;2023-03-25T01:13:07;0.50;;;0.20;;
9700;SDS011;4889;48.620;7.892;2023-03-25T01:15:32;0.70;;;0.30;;
9700;SDS011;4889;48.620;7.892;2023-03-25T01:17:57;0.53;;;0.27;;
9700;SDS011;4889;48.620;7.892;2023-03-25T01:20:23;1.37;;;1.07;;
9700;SDS011;4889;48.620;7.892;2023-03-25T01:22:48;0.60;;;0.30;;
9700;SDS011;4889;48.620;7.892;2023-03-25T01:25:13;0.90;;;0.77;;
9700;SDS011;4889;48.620;7.892;2023-03-25T01:27:38;0.60;;;0.37;;
9700;SDS011;4889;48.620;7.892;2023-03-25T01:30:04;0.50;;;0.20;;
9700;SDS011;4889;48.620;7.892;2023-03-25T01:32:29;0.50;;;0.20;;
9700;SDS011;4889;48.620;7.892;2023-03-25T01:34:54;1.67;;;0.50;;
9700;SDS011;4889;48.620;7.892;2023-03-25T01:37:20;0.60;;;0.30;;
9700;SDS011;4889;48.620;7.892;2023-03-25T01:39:46;0.70;;;0.40;;
9700;SDS011;4889;48.620;7.892;2023-03-25T01:42:11;1.70;;;0.40;;
9700;SDS011;4889;48.620;7.892;2023-03-25T01:47:02;1.23;;;0.50;;
9700;SDS011;4889;48.620;7.892;2023-03-25T01:49:30;4.13;;;2.20;;
9700;SDS011;4889;48.620;7.892;2023-03-25T01:52:02;1.03;;;0.40;;
9700;SDS011;4889;48.620;7.892;2023-03-25T01:54:28;0.50;;;0.20;;
9700;SDS011;4889;48.620;7.892;2023-03-25T01:56:54;0.50;;;0.23;;
9700;SDS011;4889;48.620;7.892;2023-03-25T01:59:21;1.70;;;0.30;;
9700;SDS011;4889;48.620;7.892;2023-03-25T02:01:49;0.50;;;0.20;;
9700;SDS011;4889;48.620;7.892;2023-03-25T02:04:15;0.50;;;0.20;;
9700;SDS011;4889;48.620;7.892;2023-03-25T02:06:50;0.53;;;0.30;;
9700;SDS011;4889;48.620;7.892;2023-03-25T02:09:18;0.60;;;0.50;;
9700;SDS011;4889;48.620;7.892;2023-03-25T02:11:45;0.50;;;0.20;;
9700;SDS011;4889;48.620;7.892;2023-03-25T02:14:14;0.80;;;0.50;;
9700;SDS011;4889;48.620;7.892;2023-03-25T02:24:33;0.50;;;0.20;;
9700;SDS011;4889;48.620;7.892;2023-03-25T02:32:43;0.50;;;0.20;;
9700;SDS011;4889;48.620;7.892;2023-03-25T02:40:49;0.50;;;0.20;;
9700;SDS011;4889;48.620;7.892;2023-03-25T02:43:24;0.50;;;0.20;;
9700;SDS011;4889;48.620;7.892;2023-03-25T02:45:51;0.50;;;0.20;;
9700;SDS011;4889;48.620;7.892;2023-03-25T02:48:25;0.93;;;0.53;;
9700;SDS011;4889;48.620;7.892;2023-03-25T02:50:54;1.17;;;0.40;;
9700;SDS011;4889;48.620;7.892;2023-03-25T02:53:21;0.50;;;0.20;;
9700;SDS011;4889;48.620;7.892;2023-03-25T02:55:47;0.50;;;0.20;;
9700;SDS011;4889;48.620;7.892;2023-03-25T02:58:15;0.50;;;0.20;;
9700;SDS011;4889;48.620;7.892;2023-03-25T03:00:42;0.50;;;0.20;;
9700;SDS011;4889;48.620;7.892;2023-03-25T03:03:07;0.50;;;0.20;;
9700;SDS011;4889;48.620;7.892;2023-03-25T03:05:37;0.93;;;0.30;;
9700;SDS011;4889;48.620;7.892;2023-03-25T03:10:50;0.50;;;0.20;;
9700;SDS011;4889;48.620;7.892;2023-03-25T03:21:22;0.50;;;0.20;;
9700;SDS011;4889;48.620;7.892;2023-03-25T03:23:56;0.60;;;0.30;;
9700;SDS011;4889;48.620;7.892;2023-03-25T03:29:35;0.60;;;0.37;;
9700;SDS011;4889;48.620;7.892;2023-03-25T03:31:50;0.90;;;0.40;;
9700;SDS011;4889;48.620;7.892;2023-03-25T03:34:24;0.50;;;0.20;;
9700;SDS011;4889;48.620;7.892;2023-03-25T03:36:51;0.70;;;0.60;;
9700;SDS011;4889;48.620;7.892;2023-03-25T03:41:44;1.03;;;0.40;;
9700;SDS011;4889;48.620;7.892;2023-03-25T03:44:15;7.30;;;0.40;;
9700;SDS011;4889;48.620;7.892;2023-03-25T03:46:48;0.60;;;0.30;;
9700;SDS011;4889;48.620;7.892;2023-03-25T03:49:16;0.60;;;0.40;;
9700;SDS011;4889;48.620;7.892;2023-03-25T03:51:48;0.50;;;0.20;;
9700;SDS011;4889;48.620;7.892;2023-03-25T03:54:29;0.50;;;0.20;;
9700;SDS011;4889;48.620;7.892;2023-03-25T03:56:56;0.50;;;0.20;;
9700;SDS011;4889;48.620;7.892;2023-03-25T03:59:27;0.70;;;0.37;;
9700;SDS011;4889;48.620;7.892;2023-03-25T04:01:58;0.50;;;0.20;;
9700;SDS011;4889;48.620;7.892;2023-03-25T04:04:24;0.50;;;0.20;;
9700;SDS011;4889;48.620;7.892;2023-03-25T04:07:00;2.93;;;0.40;;
9700;SDS011;4889;48.620;7.892;2023-03-25T04:11:59;0.50;;;0.20;;
9700;SDS011;4889;48.620;7.892;2023-03-25T04:14:26;0.50;;;0.20;;
9700;SDS011;4889;48.620;7.892;2023-03-25T04:16:53;0.50;;;0.20;;
9700;SDS011;4889;48.620;7.892;2023-03-25T04:19:18;2.83;;;0.87;;
9700;SDS011;4889;48.620;7.892;2023-03-25T04:21:44;0.50;;;0.20;;
9700;SDS011;4889;48.620;7.892;2023-03-25T04:24:10;0.50;;;0.20;;
9700;SDS011;4889;48.620;7.892;2023-03-25T04:26:35;1.17;;;0.80;;
9700;SDS011;4889;48.620;7.892;2023-03-25T04:29:05;0.50;;;0.30;;
9700;SDS011;4889;48.620;7.892;2023-03-25T04:31:31;0.50;;;0.20;;
9700;SDS011;4889;48.620;7.892;2023-03-25T04:33:57;0.50;;;0.30;;
9700;SDS011;4889;48.620;7.892;2023-03-25T04:36:23;0.50;;;0.20;;
9700;SDS011;4889;48.620;7.892;2023-03-25T04:38:48;0.60;;;0.40;;
9700;SDS011;4889;48.620;7.892;2023-03-25T04:41:14;0.50;;;0.20;;
9700;SDS011;4889;48.620;7.892;2023-03-25T04:43:39;3.17;;;0.30;;
9700;SDS011;4889;48.620;7.892;2023-03-25T04:46:05;0.50;;;0.20;;
9700;SDS011;4889;48.620;7.892;2023-03-25T04:48:32;0.60;;;0.30;;
9700;SDS011;4889;48.620;7.892;2023-03-25T04:50:59;0.90;;;0.33;;
9700;SDS011;4889;48.620;7.892;2023-03-25T04:53:25;0.70;;;0.33;;
9700;SDS011;4889;48.620;7.892;2023-03-25T04:55:51;0.70;;;0.40;;
9700;SDS011;4889;48.620;7.892;2023-03-25T04:58:16;0.60;;;0.30;;
9700;SDS011;4889;48.620;7.892;2023-03-25T05:00:42;0.50;;;0.20;;
9700;SDS011;4889;48.620;7.892;2023-03-25T05:03:08;0.50;;;0.20;;
9700;SDS011;4889;48.620;7.892;2023-03-25T05:05:35;1.17;;;0.70;;
9700;SDS011;4889;48.620;7.892;2023-03-25T05:08:00;0.50;;;0.20;;
9700;SDS011;4889;48.620;7.892;2023-03-25T05:10:27;0.67;;;0.33;;
9700;SDS011;4889;48.620;7.892;2023-03-25T05:13:05;0.90;;;0.40;;
9700;SDS011;4889;48.620;7.892;2023-03-25T05:15:32;0.83;;;0.30;;
9700;SDS011;4889;48.620;7.892;2023-03-25T05:17:59;0.50;;;0.27;;
9700;SDS011;4889;48.620;7.892;2023-03-25T05:20:26;0.60;;;0.30;;
9700;SDS011;4889;48.620;7.892;2023-03-25T05:22:51;0.60;;;0.30;;
9700;SDS011;4889;48.620;7.892;2023-03-25T05:25:17;1.37;;;0.50;;
9700;SDS011;4889;48.620;7.892;2023-03-25T05:27:46;0.80;;;0.27;;
9700;SDS011;4889;48.620;7.892;2023-03-25T05:30:11;0.67;;;0.30;;
9700;SDS011;4889;48.620;7.892;2023-03-25T05:32:36;0.50;;;0.30;;
9700;SDS011;4889;48.620;7.892;2023-03-25T05:35:05;0.50;;;0.20;;
9700;SDS011;4889;48.620;7.892;2023-03-25T05:37:31;0.50;;;0.20;;
9700;SDS011;4889;48.620;7.892;2023-03-25T05:39:56;0.50;;;0.20;;
9700;SDS011;4889;48.620;7.892;2023-03-25T05:42:21;0.50;;;0.20;;
9700;SDS011;4889;48.620;7.892;2023-03-25T05:44:47;0.50;;;0.20;;
9700;SDS011;4889;48.620;7.892;2023-03-25T05:47:19;0.50;;;0.30;;
9700;SDS011;4889;48.620;7.892;2023-03-25T05:49:45;0.50;;;0.30;;
9700;SDS011;4889;48.620;7.892;2023-03-25T05:52:11;0.80;;;0.40;;
9700;SDS011;4889;48.620;7.892;2023-03-25T05:54:37;0.50;;;0.20;;
9700;SDS011;4889;48.620;7.892;2023-03-25T05:57:06;6.33;;;1.10;;
9700;SDS011;4889;48.620;7.892;2023-03-25T05:59:31;0.50;;;0.30;;
9700;SDS011;4889;48.620;7.892;2023-03-25T06:01:57;0.50;;;0.20;;
9700;SDS011;4889;48.620;7.892;2023-03-25T06:04:22;0.50;;;0.20;;
9700;SDS011;4889;48.620;7.892;2023-03-25T06:06:48;0.50;;;0.30;;
9700;SDS011;4889;48.620;7.892;2023-03-25T06:09:14;0.70;;;0.30;;
9700;SDS011;4889;48.620;7.892;2023-03-25T06:11:41;2.10;;;0.40;;
9700;SDS011;4889;48.620;7.892;2023-03-25T06:14:07;0.50;;;0.20;;
9700;SDS011;4889;48.620;7.892;2023-03-25T06:16:33;0.70;;;0.30;;
9700;SDS011;4889;48.620;7.892;2023-03-25T06:18:59;0.60;;;0.30;;
9700;SDS011;4889;48.620;7.892;2023-03-25T06:21:25;0.50;;;0.20;;
9700;SDS011;4889;48.620;7.892;2023-03-25T06:23:51;0.50;;;0.27;;
9700;SDS011;4889;48.620;7.892;2023-03-25T06:26:18;0.70;;;0.63;;
9700;SDS011;4889;48.620;7.892;2023-03-25T06:28:44;1.90;;;0.43;;
9700;SDS011;4889;48.620;7.892;2023-03-25T06:33:38;0.57;;;0.27;;
9700;SDS011;4889;48.620;7.892;2023-03-25T06:36:03;0.80;;;0.40;;
9700;SDS011;4889;48.620;7.892;2023-03-25T06:38:28;0.50;;;0.30;;
9700;SDS011;4889;48.620;7.892;2023-03-25T06:40:54;0.50;;;0.20;;
9700;SDS011;4889;48.620;7.892;2023-03-25T06:43:21;0.50;;;0.30;;
9700;SDS011;4889;48.620;7.892;2023-03-25T06:45:49;0.50;;;0.20;;
9700;SDS011;4889;48.620;7.892;2023-03-25T06:48:14;0.50;;;0.30;;
9700;SDS011;4889;48.620;7.892;2023-03-25T06:50:40;1.00;;;0.30;;
9700;SDS011;4889;48.620;7.892;2023-03-25T06:53:05;0.50;;;0.20;;
9700;SDS011;4889;48.620;7.892;2023-03-25T06:55:31;0.50;;;0.30;;
9700;SDS011;4889;48.620;7.892;2023-03-25T06:57:56;0.50;;;0.20;;
9700;SDS011;4889;48.620;7.892;2023-03-25T07:00:21;0.50;;;0.20;;
9700;SDS011;4889;48.620;7.892;2023-03-25T07:02:48;0.83;;;0.30;;
9700;SDS011;4889;48.620;7.892;2023-03-25T07:05:14;0.50;;;0.20;;
9700;SDS011;4889;48.620;7.892;2023-03-25T07:07:39;1.07;;;0.30;;
9700;SDS011;4889;48.620;7.892;2023-03-25T07:10:04;0.50;;;0.30;;
9700;SDS011;4889;48.620;7.892;2023-03-25T07:12:32;0.60;;;0.30;;
9700;SDS011;4889;48.620;7.892;2023-03-25T07:14:57;0.60;;;0.30;;
9700;SDS011;4889;48.620;7.892;2023-03-25T07:17:23;0.50;;;0.20;;
9700;SDS011;4889;48.620;7.892;2023-03-25T07:19:48;0.60;;;0.30;;
9700;SDS011;4889;48.620;7.892;2023-03-25T07:22:13;0.60;;;0.30;;
9700;SDS011;4889;48.620;7.892;2023-03-25T07:24:39;0.67;;;0.40;;
9700;SDS011;4889;48.620;7.892;2023-03-25T07:27:04;0.70;;;0.30;;
9700;SDS011;4889;48.620;7.892;2023-03-25T07:29:29;0.50;;;0.30;;
9700;SDS011;4889;48.620;7.892;2023-03-25T07:31:55;0.70;;;0.40;;
9700;SDS011;4889;48.620;7.892;2023-03-25T07:34:20;0.60;;;0.30;;
9700;SDS011;4889;48.620;7.892;2023-03-25T07:36:45;0.50;;;0.20;;
9700;SDS011;4889;48.620;7.892;2023-03-25T07:39:10;0.50;;;0.20;;
9700;SDS011;4889;48.620;7.892;2023-03-25T07:41:36;0.50;;;0.20;;
9700;SDS011;4889;48.620;7.892;2023-03-25T07:44:01;0.50;;;0.20;;
9700;SDS011;4889;48.620;7.892;2023-03-25T07:46:26;3.43;;;0.30;;
9700;SDS011;4889;48.620;7.892;2023-03-25T07:48:52;3.03;;;0.60;;
9700;SDS011;4889;48.620;7.892;2023-03-25T07:51:17;0.60;;;0.30;;
9700;SDS011;4889;48.620;7.892;2023-03-25T07:53:42;1.63;;;0.70;;
9700;SDS011;4889;48.620;7.892;2023-03-25T07:56:09;0.50;;;0.30;;
9700;SDS011;4889;48.620;7.892;2023-03-25T07:58:35;0.50;;;0.20;;
9700;SDS011;4889;48.620;7.892;2023-03-25T08:01:00;2.90;;;1.20;;
9700;SDS011;4889;48.620;7.892;2023-03-25T08:03:26;0.50;;;0.20;;
9700;SDS011;4889;48.620;7.892;2023-03-25T08:05:52;0.67;;;0.30;;
9700;SDS011;4889;48.620;7.892;2023-03-25T08:08:17;0.60;;;0.30;;
9700;SDS011;4889;48.620;7.892;2023-03-25T08:10:43;1.10;;;0.63;;
9700;SDS011;4889;48.620;7.892;2023-03-25T08:13:08;0.70;;;0.30;;
9700;SDS011;4889;48.620;7.892;2023-03-25T08:15:33;0.90;;;0.30;;
9700;SDS011;4889;48.620;7.892;2023-03-25T08:17:59;0.60;;;0.40;;
9700;SDS011;4889;48.620;7.892;2023-03-25T08:20:24;1.07;;;0.40;;
9700;SDS011;4889;48.620;7.892;2023-03-25T08:22:50;0.70;;;0.30;;
9700;SDS011;4889;48.620;7.892;2023-03-25T08:25:15;1.93;;;0.40;;
9700;SDS011;4889;48.620;7.892;2023-03-25T08:27:40;0.50;;;0.30;;
9700;SDS011;4889;48.620;7.892;2023-03-25T08:30:06;0.80;;;0.30;;
9700;SDS011;4889;48.620;7.892;2023-03-25T08:32:33;3.40;;;0.60;;
9700;SDS011;4889;48.620;7.892;2023-03-25T08:35:00;1.07;;;0.57;;
9700;SDS011;4889;48.620;7.892;2023-03-25T08:37:25;0.93;;;0.40;;
9700;SDS011;4889;48.620;7.892;2023-03-25T08:39:51;1.90;;;0.43;;
9700;SDS011;4889;48.620;7.892;2023-03-25T08:42:19;0.80;;;0.40;;
9700;SDS011;4889;48.620;7.892;2023-03-25T08:44:44;0.50;;;0.30;;
9700;SDS011;4889;48.620;7.892;2023-03-25T08:47:09;0.70;;;0.40;;
9700;SDS011;4889;48.620;7.892;2023-03-25T08:49:35;1.33;;;0.50;;
9700;SDS011;4889;48.620;7.892;2023-03-25T08:52:00;0.60;;;0.30;;
9700;SDS011;4889;48.620;7.892;2023-03-25T08:54:26;2.30;;;0.47;;
9700;SDS011;4889;48.620;7.892;2023-03-25T08:56:51;0.60;;;0.30;;
9700;SDS011;4889;48.620;7.892;2023-03-25T08:59:16;0.60;;;0.30;;
9700;SDS011;4889;48.620;7.892;2023-03-25T09:01:42;0.50;;;0.20;;
9700;SDS011;4889;48.620;7.892;2023-03-25T09:04:09;0.80;;;0.40;;
9700;SDS011;4889;48.620;7.892;2023-03-25T09:06:34;2.07;;;0.70;;
9700;SDS011;4889;48.620;7.892;2023-03-25T09:09:00;0.97;;;0.50;;
9700;SDS011;4889;48.620;7.892;2023-03-25T09:11:25;0.63;;;0.30;;
9700;SDS011;4889;48.620;7.892;2023-03-25T09:13:50;0.60;;;0.30;;
9700;SDS011;4889;48.620;7.892;2023-03-25T09:16:16;0.60;;;0.30;;
9700;SDS011;4889;48.620;7.892;2023-03-25T09:18:41;0.70;;;0.30;;
9700;SDS011;4889;48.620;7.892;2023-03-25T09:21:06;2.20;;;0.40;;
9700;SDS011;4889;48.620;7.892;2023-03-25T09:23:31;2.10;;;0.50;;
9700;SDS011;4889;48.620;7.892;2023-03-25T09:26:00;0.70;;;0.40;;
9700;SDS011;4889;48.620;7.892;2023-03-25T09:28:27;0.60;;;0.30;;
9700;SDS011;4889;48.620;7.892;2023-03-25T09:30:52;0.50;;;0.20;;
9700;SDS011;4889;48.620;7.892;2023-03-25T09:33:18;0.90;;;0.53;;
9700;SDS011;4889;48.620;7.892;2023-03-25T09:35:43;0.50;;;0.20;;
9700;SDS011;4889;48.620;7.892;2023-03-25T09:38:08;0.90;;;0.30;;
9700;SDS011;4889;48.620;7.892;2023-03-25T09:40:33;0.50;;;0.30;;
9700;SDS011;4889;48.620;7.892;2023-03-25T09:45:43;0.50;;;0.20;;
9700;SDS011;4889;48.620;7.892;2023-03-25T09:48:28;1.20;;;0.30;;
9700;SDS011;4889;48.620;7.892;2023-03-25T09:51:37;0.50;;;0.30;;
9700;SDS011;4889;48.620;7.892;2023-03-25T09:56:19;0.50;;;0.30;;
9700;SDS011;4889;48.620;7.892;2023-03-25T09:58:46;0.50;;;0.30;;
9700;SDS011;4889;48.620;7.892;2023-03-25T10:06:22;0.60;;;0.30;;
9700;SDS011;4889;48.620;7.892;2023-03-25T10:13:53;0.60;;;0.20;;
9700;SDS011;4889;48.620;7.892;2023-03-25T10:21:38;0.60;;;0.30;;
9700;SDS011;4889;48.620;7.892;2023-03-25T10:24:52;3.03;;;0.43;;
9700;SDS011;4889;48.620;7.892;2023-03-25T10:29:27;1.40;;;0.50;;
9700;SDS011;4889;48.620;7.892;2023-03-25T10:31:55;0.60;;;0.33;;
9700;SDS011;4889;48.620;7.892;2023-03-25T10:34:30;0.90;;;0.40;;
9700;SDS011;4889;48.620;7.892;2023-03-25T10:36:57;0.70;;;0.37;;
9700;SDS011;4889;48.620;7.892;2023-03-25T10:39:28;1.10;;;0.40;;
9700;SDS011;4889;48.620;7.892;2023-03-25T10:42:23;0.60;;;0.20;;
9700;SDS011;4889;48.620;7.892;2023-03-25T10:44:43;0.60;;;0.40;;
9700;SDS011;4889;48.620;7.892;2023-03-25T10:47:14;0.70;;;0.33;;
9700;SDS011;4889;48.620;7.892;2023-03-25T10:49:41;1.43;;;0.40;;
9700;SDS011;4889;48.620;7.892;2023-03-25T10:52:07;2.00;;;0.30;;
9700;SDS011;4889;48.620;7.892;2023-03-25T10:54:35;0.77;;;0.30;;
9700;SDS011;4889;48.620;7.892;2023-03-25T10:57:01;0.60;;;0.30;;
9700;SDS011;4889;48.620;7.892;2023-03-25T10:59:34;0.60;;;0.20;;
9700;SDS011;4889;48.620;7.892;2023-03-25T11:02:20;0.60;;;0.30;;
9700;SDS011;4889;48.620;7.892;2023-03-25T11:04:54;0.80;;;0.37;;
9700;SDS011;4889;48.620;7.892;2023-03-25T11:07:42;0.60;;;0.20;;
9700;SDS011;4889;48.620;7.892;2023-03-25T11:10:28;1.43;;;0.60;;
9700;SDS011;4889;48.620;7.892;2023-03-25T11:12:52;0.60;;;0.30;;
9700;SDS011;4889;48.620;7.892;2023-03-25T11:15:22;0.60;;;0.20;;
9700;SDS011;4889;48.620;7.892;2023-03-25T11:17:54;0.60;;;0.30;;
9700;SDS011;4889;48.620;7.892;2023-03-25T11:20:20;0.90;;;0.47;;
9700;SDS011;4889;48.620;7.892;2023-03-25T11:22:49;0.70;;;0.40;;
9700;SDS011;4889;48.620;7.892;2023-03-25T11:27:45;0.60;;;0.20;;
9700;SDS011;4889;48.620;7.892;2023-03-25T11:30:15;1.33;;;0.70;;
9700;SDS011;4889;48.620;7.892;2023-03-25T11:32:41;0.60;;;0.20;;
9700;SDS011;4889;48.620;7.892;2023-03-25T11:35:16;0.93;;;0.67;;
9700;SDS011;4889;48.620;7.892;2023-03-25T11:37:46;0.60;;;0.30;;
9700;SDS011;4889;48.620;7.892;2023-03-25T11:40:16;0.60;;;0.30;;
9700;SDS011;4889;48.620;7.892;2023-03-25T11:42:42;0.77;;;0.33;;
9700;SDS011;4889;48.620;7.892;2023-03-25T11:45:20;0.60;;;0.20;;
9700;SDS011;4889;48.620;7.892;2023-03-25T11:47:46;0.90;;;0.30;;
9700;SDS011;4889;48.620;7.892;2023-03-25T11:50:20;1.00;;;0.50;;
9700;SDS011;4889;48.620;7.892;2023-03-25T11:52:46;0.70;;;0.30;;
9700;SDS011;4889;48.620;7.892;2023-03-25T11:55:18;1.43;;;0.60;;
9700;SDS011;4889;48.620;7.892;2023-03-25T11:57:44;1.10;;;0.40;;
9700;SDS011;4889;48.620;7.892;2023-03-25T12:02:58;1.60;;;0.50;;
9700;SDS011;4889;48.620;7.892;2023-03-25T12:05:24;1.90;;;0.67;;
9700;SDS011;4889;48.620;7.892;2023-03-25T12:07:50;1.00;;;0.30;;
9700;SDS011;4889;48.620;7.892;2023-03-25T12:20:40;0.80;;;0.30;;
9700;SDS011;4889;48.620;7.892;2023-03-25T12:23:17;1.10;;;0.50;;
9700;SDS011;4889;48.620;7.892;2023-03-25T12:31:05;3.40;;;0.30;;
9700;SDS011;4889;48.620;7.892;2023-03-25T12:41:45;4.10;;;0.50;;
9700;SDS011;4889;48.620;7.892;2023-03-25T12:44:17;6.87;;;0.50;;
9700;SDS011;4889;48.620;7.892;2023-03-25T12:47:06;5.30;;;0.70;;
9700;SDS011;4889;48.620;7.892;2023-03-25T12:52:15;5.00;;;0.73;;
9700;SDS011;4889;48.620;7.892;2023-03-25T12:55:06;5.23;;;0.60;;
9700;SDS011;4889;48.620;7.892;2023-03-25T13:08:21;4.43;;;0.40;;
9700;SDS011;4889;48.620;7.892;2023-03-25T13:10:50;4.53;;;0.57;;
9700;SDS011;4889;48.620;7.892;2023-03-25T13:13:19;4.00;;;0.40;;
9700;SDS011;4889;48.620;7.892;2023-03-25T13:15:49;4.67;;;0.77;;
9700;SDS011;4889;48.620;7.892;2023-03-25T13:18:29;3.67;;;0.30;;
9700;SDS011;4889;48.620;7.892;2023-03-25T13:21:14;3.70;;;0.30;;
9700;SDS011;4889;48.620;7.892;2023-03-25T13:23:41;3.77;;;0.30;;
9700;SDS011;4889;48.620;7.892;2023-03-25T13:26:11;3.80;;;0.33;;
9700;SDS011;4889;48.620;7.892;2023-03-25T13:28:42;3.70;;;0.40;;
9700;SDS011;4889;48.620;7.892;2023-03-25T13:31:18;5.00;;;0.87;;
9700;SDS011;4889;48.620;7.892;2023-03-25T13:33:44;6.43;;;0.70;;
9700;SDS011;4889;48.620;7.892;2023-03-25T13:38:45;6.20;;;0.60;;
9700;SDS011;4889;48.620;7.892;2023-03-25T13:41:24;8.73;;;2.30;;
9700;SDS011;4889;48.620;7.892;2023-03-25T13:46:35;4.53;;;0.53;;
9700;SDS011;4889;48.620;7.892;2023-03-25T13:49:16;3.80;;;0.40;;
9700;SDS011;4889;48.620;7.892;2023-03-25T13:51:42;3.80;;;0.40;;
9700;SDS011;4889;48.620;7.892;2023-03-25T13:54:11;5.40;;;0.63;;
9700;SDS011;4889;48.620;7.892;2023-03-25T13:56:45;5.13;;;0.40;;
9700;SDS011;4889;48.620;7.892;2023-03-25T14:01:57;4.20;;;0.50;;
9700;SDS011;4889;48.620;7.892;2023-03-25T14:07:21;7.83;;;0.50;;
9700;SDS011;4889;48.620;7.892;2023-03-25T14:14:53;3.80;;;0.30;;
9700;SDS011;4889;48.620;7.892;2023-03-25T14:17:20;4.33;;;0.60;;
9700;SDS011;4889;48.620;7.892;2023-03-25T14:19:51;3.70;;;0.30;;
9700;SDS011;4889;48.620;7.892;2023-03-25T14:22:23;3.80;;;0.30;;
9700;SDS011;4889;48.620;7.892;2023-03-25T14:24:50;3.80;;;0.30;;
9700;SDS011;4889;48.620;7.892;2023-03-25T14:27:17;4.50;;;0.63;;
9700;SDS011;4889;48.620;7.892;2023-03-25T14:29:55;3.73;;;0.30;;
9700;SDS011;4889;48.620;7.892;2023-03-25T14:34:46;3.63;;;0.40;;
9700;SDS011;4889;48.620;7.892;2023-03-25T14:37:23;4.40;;;0.83;;
9700;SDS011;4889;48.620;7.892;2023-03-25T14:39:53;4.00;;;0.50;;
9700;SDS011;4889;48.620;7.892;2023-03-25T14:44:46;4.20;;;0.43;;
9700;SDS011;4889;48.620;7.892;2023-03-25T14:49:50;4.73;;;0.90;;
9700;SDS011;4889;48.620;7.892;2023-03-25T14:52:30;6.23;;;0.40;;
9700;SDS011;4889;48.620;7.892;2023-03-25T14:54:56;6.60;;;0.40;;
9700;SDS011;4889;48.620;7.892;2023-03-25T14:57:22;3.80;;;0.30;;
9700;SDS011;4889;48.620;7.892;2023-03-25T14:59:50;4.10;;;0.47;;
9700;SDS011;4889;48.620;7.892;2023-03-25T15:02:23;6.53;;;0.60;;
9700;SDS011;4889;48.620;7.892;2023-03-25T15:04:50;3.93;;;0.30;;
9700;SDS011;4889;48.620;7.892;2023-03-25T15:07:17;4.20;;;0.50;;
9700;SDS011;4889;48.620;7.892;2023-03-25T15:09:44;4.40;;;0.50;;
9700;SDS011;4889;48.620;7.892;2023-03-25T15:12:12;4.00;;;0.30;;
9700;SDS011;4889;48.620;7.892;2023-03-25T15:14:40;3.90;;;0.40;;
9700;SDS011;4889;48.620;7.892;2023-03-25T15:17:09;3.80;;;0.30;;
9700;SDS011;4889;48.620;7.892;2023-03-25T15:22:21;5.37;;;0.40;;
9700;SDS011;4889;48.620;7.892;2023-03-25T15:24:47;3.90;;;0.40;;
9700;SDS011;4889;48.620;7.892;2023-03-25T15:27:18;4.10;;;0.70;;
9700;SDS011;4889;48.620;7.892;2023-03-25T15:30:06;3.77;;;0.30;;
9700;SDS011;4889;48.620;7.892;2023-03-25T15:35:35;3.80;;;0.47;;
9700;SDS011;4889;48.620;7.892;2023-03-25T15:38:03;3.70;;;0.40;;
9700;SDS011;4889;48.620;7.892;2023-03-25T15:44:00;3.80;;;0.50;;
9700;SDS011;4889;48.620;7.892;2023-03-25T15:46:22;4.33;;;0.40;;
9700;SDS011;4889;48.620;7.892;2023-03-25T15:51:26;4.53;;;0.50;;
9700;SDS011;4889;48.620;7.892;2023-03-25T15:56:41;3.70;;;0.30;;
9700;SDS011;4889;48.620;7.892;2023-03-25T15:59:20;4.27;;;0.47;;
9700;SDS011;4889;48.620;7.892;2023-03-25T16:01:50;3.70;;;0.30;;
9700;SDS011;4889;48.620;7.892;2023-03-25T16:06:59;4.13;;;0.30;;
9700;SDS011;4889;48.620;7.892;2023-03-25T16:09:27;3.70;;;0.30;;
9700;SDS011;4889;48.620;7.892;2023-03-25T16:11:59;3.90;;;0.47;;
9700;SDS011;4889;48.620;7.892;2023-03-25T16:14:27;6.13;;;1.00;;
9700;SDS011;4889;48.620;7.892;2023-03-25T16:16:54;4.10;;;0.50;;
9700;SDS011;4889;48.620;7.892;2023-03-25T16:19:23;3.80;;;0.30;;
9700;SDS011;4889;48.620;7.892;2023-03-25T16:21:50;8.50;;;0.83;;
9700;SDS011;4889;48.620;7.892;2023-03-25T16:24:16;4.50;;;0.80;;
9700;SDS011;4889;48.620;7.892;2023-03-25T16:26:45;3.90;;;0.40;;
9700;SDS011;4889;48.620;7.892;2023-03-25T16:29:16;3.80;;;0.30;;
9700;SDS011;4889;48.620;7.892;2023-03-25T16:34:20;4.97;;;0.40;;
9700;SDS011;4889;48.620;7.892;2023-03-25T16:36:46;5.40;;;0.90;;
9700;SDS011;4889;48.620;7.892;2023-03-25T16:39:12;3.90;;;0.30;;
9700;SDS011;4889;48.620;7.892;2023-03-25T16:41:41;4.00;;;0.30;;
9700;SDS011;4889;48.620;7.892;2023-03-25T16:44:06;3.90;;;0.30;;
9700;SDS011;4889;48.620;7.892;2023-03-25T16:46:32;4.30;;;0.67;;
9700;SDS011;4889;48.620;7.892;2023-03-25T16:48:57;4.00;;;0.40;;
9700;SDS011;4889;48.620;7.892;2023-03-25T16:51:29;4.83;;;0.40;;
9700;SDS011;4889;48.620;7.892;2023-03-25T16:53:59;4.07;;;0.40;;
9700;SDS011;4889;48.620;7.892;2023-03-25T16:56:29;4.00;;;0.30;;
9700;SDS011;4889;48.620;7.892;2023-03-25T17:01:34;5.90;;;1.23;;
9700;SDS011;4889;48.620;7.892;2023-03-25T17:06:41;8.93;;;4.43;;
9700;SDS011;4889;48.620;7.892;2023-03-25T17:09:09;6.07;;;0.53;;
9700;SDS011;4889;48.620;7.892;2023-03-25T17:11:35;4.60;;;0.40;;
9700;SDS011;4889;48.620;7.892;2023-03-25T17:14:03;13.30;;;0.60;;
9700;SDS011;4889;48.620;7.892;2023-03-25T17:16:30;4.07;;;0.30;;
9700;SDS011;4889;48.620;7.892;2023-03-25T17:18:56;4.07;;;0.40;;
9700;SDS011;4889;48.620;7.892;2023-03-25T17:21:26;4.60;;;0.40;;
9700;SDS011;4889;48.620;7.892;2023-03-25T17:23:55;9.50;;;1.27;;
9700;SDS011;4889;48.620;7.892;2023-03-25T17:26:22;4.10;;;0.40;;
9700;SDS011;4889;48.620;7.892;2023-03-25T17:31:24;4.00;;;0.40;;
9700;SDS011;4889;48.620;7.892;2023-03-25T17:33:52;3.90;;;0.40;;
9700;SDS011;4889;48.620;7.892;2023-03-25T17:36:18;4.03;;;0.40;;
9700;SDS011;4889;48.620;7.892;2023-03-25T17:38:44;4.00;;;0.40;;
9700;SDS011;4889;48.620;7.892;2023-03-25T17:41:10;4.00;;;0.50;;
9700;SDS011;4889;48.620;7.892;2023-03-25T17:43:40;3.70;;;0.40;;
9700;SDS011;4889;48.620;7.892;2023-03-25T17:46:06;3.80;;;0.40;;
9700;SDS011;4889;48.620;7.892;2023-03-25T17:48:32;4.63;;;0.70;;
9700;SDS011;4889;48.620;7.892;2023-03-25T17:50:57;3.60;;;0.30;;
9700;SDS011;4889;48.620;7.892;2023-03-25T17:53:23;3.70;;;0.50;;
9700;SDS011;4889;48.620;7.892;2023-03-25T17:55:48;3.67;;;0.40;;
9700;SDS011;4889;48.620;7.892;2023-03-25T17:58:14;3.60;;;0.30;;
9700;SDS011;4889;48.620;7.892;2023-03-25T18:00:40;3.93;;;0.47;;